sensor_id;sensor_type;location;lat;lon;timestamp;temperature;humidity
6054;DHT22;3055;50.886;14.814;2024-01-11T00:01:46;-9.50;99.90
6054;DHT22;3055;50.886;14.814;2024-01-11T00:04:13;-9.50;99.90
6054;DHT22;3055;50.886;14.814;2024-01-11T00:06:42;-9.60;99.90
6054;DHT22;3055;50.886;14.814;2024-01-11T00:09:11;-9.60;99.90
6054;DHT22;3055;50.886;14.814;2024-01-11T00:11:38;-9.60;99.90
6054;DHT22;3055;50.886;14.814;2024-01-11T00:14:05;-9.60;99.90
6054;DHT22;3055;50.886;14.814;2024-01-11T00:16:33;-9.60;99.90
6054;DHT22;3055;50.886;14.814;2024-01-11T00:19:00;-9.50;99.90
6054;DHT22;3055;50.886;14.814;2024-01-11T00:21:27;-9.60;99.90
6054;DHT22;3055;50.886;14.814;2024-01-11T00:23:55;-9.60;99.90
6054;DHT22;3055;50.886;14.814;2024-01-11T00:26:23;-9.60;99.90
6054;DHT22;3055;50.886;14.814;2024-01-11T00:28:50;-9.60;99.90
6054;DHT22;3055;50.886;14.814;2024-01-11T00:31:17;-9.70;99.90
6054;DHT22;3055;50.886;14.814;2024-01-11T00:33:45;-9.70;99.90
6054;DHT22;3055;50.886;14.814;2024-01-11T00:36:17;-9.70;99.90
6054;DHT22;3055;50.886;14.814;2024-01-11T00:38:45;-9.80;99.90
6054;DHT22;3055;50.886;14.814;2024-01-11T00:41:13;-9.70;99.90
6054;DHT22;3055;50.886;14.814;2024-01-11T00:43:41;-9.70;99.90
6054;DHT22;3055;50.886;14.814;2024-01-11T00:46:08;-9.70;99.90
6054;DHT22;3055;50.886;14.814;2024-01-11T00:48:37;-9.80;99.90
6054;DHT22;3055;50.886;14.814;2024-01-11T00:51:05;-9.70;99.90
6054;DHT22;3055;50.886;14.814;2024-01-11T00:53:32;-9.80;99.90
6054;DHT22;3055;50.886;14.814;2024-01-11T00:56:00;-9.80;99.90
6054;DHT22;3055;50.886;14.814;2024-01-11T00:58:27;-9.80;99.90
6054;DHT22;3055;50.886;14.814;2024-01-11T01:00:57;-9.70;99.90
6054;DHT22;3055;50.886;14.814;2024-01-11T01:03:24;-9.70;99.90
6054;DHT22;3055;50.886;14.814;2024-01-11T01:05:52;-9.80;99.90
6054;DHT22;3055;50.886;14.814;2024-01-11T01:08:19;-9.80;99.90
6054;DHT22;3055;50.886;14.814;2024-01-11T01:10:46;-9.80;99.90
6054;DHT22;3055;50.886;14.814;2024-01-11T01:13:14;-9.70;99.90
6054;DHT22;3055;50.886;14.814;2024-01-11T01:15:41;-9.70;99.90
6054;DHT22;3055;50.886;14.814;2024-01-11T01:18:09;-9.60;99.90
6054;DHT22;3055;50.886;14.814;2024-01-11T01:20:36;-9.60;99.90
6054;DHT22;3055;50.886;14.814;2024-01-11T01:23:04;-9.70;99.90
6054;DHT22;3055;50.886;14.814;2024-01-11T01:25:31;-9.60;99.90
6054;DHT22;3055;50.886;14.814;2024-01-11T01:27:59;-9.30;99.90
6054;DHT22;3055;50.886;14.814;2024-01-11T01:30:26;-9.40;99.90
6054;DHT22;3055;50.886;14.814;2024-01-11T01:32:54;-9.50;99.90
6054;DHT22;3055;50.886;14.814;2024-01-11T01:35:23;-9.50;99.90
6054;DHT22;3055;50.886;14.814;2024-01-11T01:37:50;-9.60;99.90
6054;DHT22;3055;50.886;14.814;2024-01-11T01:40:17;-9.70;99.90
6054;DHT22;3055;50.886;14.814;2024-01-11T01:42:45;-9.70;99.90
6054;DHT22;3055;50.886;14.814;2024-01-11T01:45:12;-9.70;99.90
6054;DHT22;3055;50.886;14.814;2024-01-11T01:47:40;-9.70;99.90
6054;DHT22;3055;50.886;14.814;2024-01-11T01:50:10;-9.70;99.90
6054;DHT22;3055;50.886;14.814;2024-01-11T01:52:40;-9.80;99.90
6054;DHT22;3055;50.886;14.814;2024-01-11T01:55:10;-9.90;99.90
6054;DHT22;3055;50.886;14.814;2024-01-11T01:57:40;-9.90;99.90
6054;DHT22;3055;50.886;14.814;2024-01-11T02:00:09;-9.80;99.90
6054;DHT22;3055;50.886;14.814;2024-01-11T02:02:38;-9.80;99.90
6054;DHT22;3055;50.886;14.814;2024-01-11T02:05:07;-9.90;99.90
6054;DHT22;3055;50.886;14.814;2024-01-11T02:07:34;-9.90;99.90
6054;DHT22;3055;50.886;14.814;2024-01-11T02:10:04;-9.90;99.90
6054;DHT22;3055;50.886;14.814;2024-01-11T02:12:32;-9.90;99.90
6054;DHT22;3055;50.886;14.814;2024-01-11T02:15:01;-9.80;99.90
6054;DHT22;3055;50.886;14.814;2024-01-11T02:17:30;-9.80;99.90
6054;DHT22;3055;50.886;14.814;2024-01-11T02:19:57;-9.80;99.90
6054;DHT22;3055;50.886;14.814;2024-01-11T02:22:29;-9.80;99.90
6054;DHT22;3055;50.886;14.814;2024-01-11T02:24:57;-9.90;99.90
6054;DHT22;3055;50.886;14.814;2024-01-11T02:27:24;-9.90;99.90
6054;DHT22;3055;50.886;14.814;2024-01-11T02:29:52;-9.80;99.90
6054;DHT22;3055;50.886;14.814;2024-01-11T02:32:20;-9.80;99.90
6054;DHT22;3055;50.886;14.814;2024-01-11T02:34:47;-9.80;99.90
6054;DHT22;3055;50.886;14.814;2024-01-11T02:37:15;-9.90;99.90
6054;DHT22;3055;50.886;14.814;2024-01-11T02:39:42;-9.90;99.90
6054;DHT22;3055;50.886;14.814;2024-01-11T02:42:10;-9.80;99.90
6054;DHT22;3055;50.886;14.814;2024-01-11T02:44:37;-9.60;99.90
6054;DHT22;3055;50.886;14.814;2024-01-11T02:47:05;-9.70;99.90
6054;DHT22;3055;50.886;14.814;2024-01-11T02:49:32;-9.60;99.90
6054;DHT22;3055;50.886;14.814;2024-01-11T02:51:59;-9.60;99.90
6054;DHT22;3055;50.886;14.814;2024-01-11T02:54:26;-9.80;99.90
6054;DHT22;3055;50.886;14.814;2024-01-11T02:56:53;-9.80;99.90
6054;DHT22;3055;50.886;14.814;2024-01-11T02:59:24;-9.80;99.90
6054;DHT22;3055;50.886;14.814;2024-01-11T03:01:51;-9.80;99.90
6054;DHT22;3055;50.886;14.814;2024-01-11T03:04:18;-9.90;99.90
6054;DHT22;3055;50.886;14.814;2024-01-11T03:06:46;-9.80;99.90
6054;DHT22;3055;50.886;14.814;2024-01-11T03:09:13;-9.70;99.90
6054;DHT22;3055;50.886;14.814;2024-01-11T03:11:40;-9.70;99.90
6054;DHT22;3055;50.886;14.814;2024-01-11T03:14:07;-9.80;99.90
6054;DHT22;3055;50.886;14.814;2024-01-11T03:16:36;-9.60;99.90
6054;DHT22;3055;50.886;14.814;2024-01-11T03:19:05;-9.50;99.90
6054;DHT22;3055;50.886;14.814;2024-01-11T03:21:32;-9.50;99.90
6054;DHT22;3055;50.886;14.814;2024-01-11T03:23:59;-9.70;99.90
6054;DHT22;3055;50.886;14.814;2024-01-11T03:26:26;-9.70;99.90
6054;DHT22;3055;50.886;14.814;2024-01-11T03:28:54;-9.80;99.90
6054;DHT22;3055;50.886;14.814;2024-01-11T03:31:21;-9.80;99.90
6054;DHT22;3055;50.886;14.814;2024-01-11T03:33:49;-9.80;99.90
6054;DHT22;3055;50.886;14.814;2024-01-11T03:36:17;-9.80;99.90
6054;DHT22;3055;50.886;14.814;2024-01-11T03:38:44;-9.90;99.90
6054;DHT22;3055;50.886;14.814;2024-01-11T03:41:11;-9.80;99.90
6054;DHT22;3055;50.886;14.814;2024-01-11T03:43:39;-9.70;99.90
6054;DHT22;3055;50.886;14.814;2024-01-11T03:46:06;-9.50;99.90
6054;DHT22;3055;50.886;14.814;2024-01-11T03:48:33;-9.50;99.90
6054;DHT22;3055;50.886;14.814;2024-01-11T03:51:03;-9.50;99.90
6054;DHT22;3055;50.886;14.814;2024-01-11T03:53:30;-9.50;99.90
6054;DHT22;3055;50.886;14.814;2024-01-11T03:56:01;-9.60;99.90
6054;DHT22;3055;50.886;14.814;2024-01-11T03:58:28;-9.60;99.90
6054;DHT22;3055;50.886;14.814;2024-01-11T04:00:55;-9.50;99.90
6054;DHT22;3055;50.886;14.814;2024-01-11T04:03:22;-9.50;99.90
6054;DHT22;3055;50.886;14.814;2024-01-11T04:05:49;-9.40;99.90
6054;DHT22;3055;50.886;14.814;2024-01-11T04:08:18;-9.40;99.90
6054;DHT22;3055;50.886;14.814;2024-01-11T04:10:45;-9.40;99.90
6054;DHT22;3055;50.886;14.814;2024-01-11T04:13:12;-9.60;99.90
6054;DHT22;3055;50.886;14.814;2024-01-11T04:15:39;-9.80;99.90
6054;DHT22;3055;50.886;14.814;2024-01-11T04:18:06;-9.80;99.90
6054;DHT22;3055;50.886;14.814;2024-01-11T04:20:34;-9.60;99.90
6054;DHT22;3055;50.886;14.814;2024-01-11T04:23:01;-9.70;99.90
6054;DHT22;3055;50.886;14.814;2024-01-11T04:25:30;-9.80;99.90
6054;DHT22;3055;50.886;14.814;2024-01-11T04:27:57;-9.80;99.90
6054;DHT22;3055;50.886;14.814;2024-01-11T04:30:24;-9.70;99.90
6054;DHT22;3055;50.886;14.814;2024-01-11T04:32:51;-9.60;99.90
6054;DHT22;3055;50.886;14.814;2024-01-11T04:35:18;-9.50;99.90
6054;DHT22;3055;50.886;14.814;2024-01-11T04:37:45;-9.40;99.90
6054;DHT22;3055;50.886;14.814;2024-01-11T04:40:13;-9.50;99.90
6054;DHT22;3055;50.886;14.814;2024-01-11T04:42:42;-9.50;99.90
6054;DHT22;3055;50.886;14.814;2024-01-11T04:45:10;-9.60;99.90
6054;DHT22;3055;50.886;14.814;2024-01-11T04:47:37;-9.60;99.90
6054;DHT22;3055;50.886;14.814;2024-01-11T04:50:05;-9.50;99.90
6054;DHT22;3055;50.886;14.814;2024-01-11T04:52:32;-9.40;99.90
6054;DHT22;3055;50.886;14.814;2024-01-11T04:54:59;-9.40;99.90
6054;DHT22;3055;50.886;14.814;2024-01-11T04:57:27;-9.40;99.90
6054;DHT22;3055;50.886;14.814;2024-01-11T04:59:56;-9.50;99.90
6054;DHT22;3055;50.886;14.814;2024-01-11T05:02:23;-9.50;99.90
6054;DHT22;3055;50.886;14.814;2024-01-11T05:04:50;-9.60;99.90
6054;DHT22;3055;50.886;14.814;2024-01-11T05:07:18;-9.60;99.90
6054;DHT22;3055;50.886;14.814;2024-01-11T05:09:45;-9.70;99.90
6054;DHT22;3055;50.886;14.814;2024-01-11T05:12:14;-9.80;99.90
6054;DHT22;3055;50.886;14.814;2024-01-11T05:14:41;-9.40;99.90
6054;DHT22;3055;50.886;14.814;2024-01-11T05:17:10;-9.40;99.90
6054;DHT22;3055;50.886;14.814;2024-01-11T05:19:37;-9.50;99.90
6054;DHT22;3055;50.886;14.814;2024-01-11T05:22:05;-9.50;99.90
6054;DHT22;3055;50.886;14.814;2024-01-11T05:24:32;-9.60;99.90
6054;DHT22;3055;50.886;14.814;2024-01-11T05:26:59;-9.70;99.90
6054;DHT22;3055;50.886;14.814;2024-01-11T05:29:26;-9.60;99.90
6054;DHT22;3055;50.886;14.814;2024-01-11T05:31:53;-9.50;99.90
6054;DHT22;3055;50.886;14.814;2024-01-11T05:34:23;-9.50;99.90
6054;DHT22;3055;50.886;14.814;2024-01-11T05:36:50;-9.60;99.90
6054;DHT22;3055;50.886;14.814;2024-01-11T05:39:18;-9.80;99.90
6054;DHT22;3055;50.886;14.814;2024-01-11T05:41:45;-9.60;99.90
6054;DHT22;3055;50.886;14.814;2024-01-11T05:44:13;-9.40;99.90
6054;DHT22;3055;50.886;14.814;2024-01-11T05:46:40;-9.50;99.90
6054;DHT22;3055;50.886;14.814;2024-01-11T05:49:08;-9.70;99.90
6054;DHT22;3055;50.886;14.814;2024-01-11T05:51:37;-9.80;99.90
6054;DHT22;3055;50.886;14.814;2024-01-11T05:54:05;-9.90;99.90
6054;DHT22;3055;50.886;14.814;2024-01-11T05:56:32;-9.90;99.90
6054;DHT22;3055;50.886;14.814;2024-01-11T05:59:00;-9.90;99.90
6054;DHT22;3055;50.886;14.814;2024-01-11T06:01:28;-9.90;99.90
6054;DHT22;3055;50.886;14.814;2024-01-11T06:03:55;-9.90;99.90
6054;DHT22;3055;50.886;14.814;2024-01-11T06:06:23;-9.70;99.90
6054;DHT22;3055;50.886;14.814;2024-01-11T06:08:52;-9.80;99.90
6054;DHT22;3055;50.886;14.814;2024-01-11T06:11:19;-9.80;99.90
6054;DHT22;3055;50.886;14.814;2024-01-11T06:13:47;-9.70;99.90
6054;DHT22;3055;50.886;14.814;2024-01-11T06:16:14;-9.70;99.90
6054;DHT22;3055;50.886;14.814;2024-01-11T06:18:41;-9.70;99.90
6054;DHT22;3055;50.886;14.814;2024-01-11T06:21:09;-9.80;99.90
6054;DHT22;3055;50.886;14.814;2024-01-11T06:23:36;-9.80;99.90
6054;DHT22;3055;50.886;14.814;2024-01-11T06:26:05;-9.80;99.90
6054;DHT22;3055;50.886;14.814;2024-01-11T06:28:33;-9.80;99.90
6054;DHT22;3055;50.886;14.814;2024-01-11T06:31:00;-9.90;99.90
6054;DHT22;3055;50.886;14.814;2024-01-11T06:33:29;-9.90;99.90
6054;DHT22;3055;50.886;14.814;2024-01-11T06:35:57;-9.90;99.90
6054;DHT22;3055;50.886;14.814;2024-01-11T06:38:25;-9.90;99.90
6054;DHT22;3055;50.886;14.814;2024-01-11T06:40:53;-9.90;99.90
6054;DHT22;3055;50.886;14.814;2024-01-11T06:43:22;-9.90;99.90
6054;DHT22;3055;50.886;14.814;2024-01-11T06:45:49;-9.90;99.90
6054;DHT22;3055;50.886;14.814;2024-01-11T06:48:17;-9.90;99.90
6054;DHT22;3055;50.886;14.814;2024-01-11T06:50:45;-9.90;99.90
6054;DHT22;3055;50.886;14.814;2024-01-11T06:53:12;-9.70;99.90
6054;DHT22;3055;50.886;14.814;2024-01-11T06:55:40;-9.60;99.90
6054;DHT22;3055;50.886;14.814;2024-01-11T06:58:09;-9.60;99.90
6054;DHT22;3055;50.886;14.814;2024-01-11T07:00:38;-9.60;99.90
6054;DHT22;3055;50.886;14.814;2024-01-11T07:03:08;-9.60;99.90
6054;DHT22;3055;50.886;14.814;2024-01-11T07:05:36;-9.40;99.90
6054;DHT22;3055;50.886;14.814;2024-01-11T07:08:05;-9.30;99.90
6054;DHT22;3055;50.886;14.814;2024-01-11T07:10:32;-9.30;99.90
6054;DHT22;3055;50.886;14.814;2024-01-11T07:12:59;-9.10;99.90
6054;DHT22;3055;50.886;14.814;2024-01-11T07:15:27;-8.90;99.90
6054;DHT22;3055;50.886;14.814;2024-01-11T07:17:57;-8.90;99.90
6054;DHT22;3055;50.886;14.814;2024-01-11T07:20:24;-8.90;99.90
6054;DHT22;3055;50.886;14.814;2024-01-11T07:22:51;-8.80;99.90
6054;DHT22;3055;50.886;14.814;2024-01-11T07:25:19;-8.80;99.90
6054;DHT22;3055;50.886;14.814;2024-01-11T07:27:46;-8.80;99.90
6054;DHT22;3055;50.886;14.814;2024-01-11T07:30:13;-8.80;99.90
6054;DHT22;3055;50.886;14.814;2024-01-11T07:32:41;-8.70;99.90
6054;DHT22;3055;50.886;14.814;2024-01-11T07:35:10;-8.40;99.90
6054;DHT22;3055;50.886;14.814;2024-01-11T07:37:38;-8.30;99.90
6054;DHT22;3055;50.886;14.814;2024-01-11T07:40:07;-8.20;99.90
6054;DHT22;3055;50.886;14.814;2024-01-11T07:42:37;-8.00;99.90
6054;DHT22;3055;50.886;14.814;2024-01-11T07:45:06;-7.90;99.90
6054;DHT22;3055;50.886;14.814;2024-01-11T07:47:35;-7.90;99.90
6054;DHT22;3055;50.886;14.814;2024-01-11T07:50:03;-7.70;99.90
6054;DHT22;3055;50.886;14.814;2024-01-11T07:52:34;-7.70;99.90
6054;DHT22;3055;50.886;14.814;2024-01-11T07:55:02;-7.50;99.90
6054;DHT22;3055;50.886;14.814;2024-01-11T07:57:33;-7.40;99.90
6054;DHT22;3055;50.886;14.814;2024-01-11T08:00:00;-7.40;99.90
6054;DHT22;3055;50.886;14.814;2024-01-11T08:02:28;-7.50;99.90
6054;DHT22;3055;50.886;14.814;2024-01-11T08:04:55;-7.60;99.90
6054;DHT22;3055;50.886;14.814;2024-01-11T08:07:24;-7.50;99.90
6054;DHT22;3055;50.886;14.814;2024-01-11T08:09:53;-7.50;99.90
6054;DHT22;3055;50.886;14.814;2024-01-11T08:12:21;-7.50;99.90
6054;DHT22;3055;50.886;14.814;2024-01-11T08:14:48;-7.30;99.90
6054;DHT22;3055;50.886;14.814;2024-01-11T08:17:16;-7.30;99.90
6054;DHT22;3055;50.886;14.814;2024-01-11T08:19:44;-7.30;99.90
6054;DHT22;3055;50.886;14.814;2024-01-11T08:22:11;-7.40;99.90
6054;DHT22;3055;50.886;14.814;2024-01-11T08:24:39;-7.30;99.90
6054;DHT22;3055;50.886;14.814;2024-01-11T08:27:07;-7.20;99.90
6054;DHT22;3055;50.886;14.814;2024-01-11T08:29:35;-7.10;99.90
6054;DHT22;3055;50.886;14.814;2024-01-11T08:32:02;-6.90;99.90
6054;DHT22;3055;50.886;14.814;2024-01-11T08:34:30;-6.70;99.90
6054;DHT22;3055;50.886;14.814;2024-01-11T08:36:57;-6.60;99.90
6054;DHT22;3055;50.886;14.814;2024-01-11T08:39:24;-6.50;99.90
6054;DHT22;3055;50.886;14.814;2024-01-11T08:41:51;-6.30;99.90
6054;DHT22;3055;50.886;14.814;2024-01-11T08:44:20;-6.20;99.90
6054;DHT22;3055;50.886;14.814;2024-01-11T08:46:47;-6.10;99.90
6054;DHT22;3055;50.886;14.814;2024-01-11T08:49:14;-5.90;99.90
6054;DHT22;3055;50.886;14.814;2024-01-11T08:51:41;-5.70;99.90
6054;DHT22;3055;50.886;14.814;2024-01-11T08:54:08;-5.40;99.90
6054;DHT22;3055;50.886;14.814;2024-01-11T08:56:37;-5.10;99.90
6054;DHT22;3055;50.886;14.814;2024-01-11T08:59:05;-4.90;99.90
6054;DHT22;3055;50.886;14.814;2024-01-11T09:01:35;-4.70;99.90
6054;DHT22;3055;50.886;14.814;2024-01-11T09:04:03;-4.60;99.90
6054;DHT22;3055;50.886;14.814;2024-01-11T09:06:31;-4.50;99.90
6054;DHT22;3055;50.886;14.814;2024-01-11T09:09:00;-4.40;99.90
6054;DHT22;3055;50.886;14.814;2024-01-11T09:11:27;-4.30;99.90
6054;DHT22;3055;50.886;14.814;2024-01-11T09:13:55;-4.30;99.90
6054;DHT22;3055;50.886;14.814;2024-01-11T09:16:22;-4.20;99.90
6054;DHT22;3055;50.886;14.814;2024-01-11T09:18:51;-4.10;99.90
6054;DHT22;3055;50.886;14.814;2024-01-11T09:21:19;-4.10;99.90
6054;DHT22;3055;50.886;14.814;2024-01-11T09:23:46;-3.90;99.90
6054;DHT22;3055;50.886;14.814;2024-01-11T09:26:13;-3.80;99.90
6054;DHT22;3055;50.886;14.814;2024-01-11T09:28:42;-3.70;99.90
6054;DHT22;3055;50.886;14.814;2024-01-11T09:31:09;-3.60;99.90
6054;DHT22;3055;50.886;14.814;2024-01-11T09:33:37;-3.50;99.90
6054;DHT22;3055;50.886;14.814;2024-01-11T09:36:07;-3.40;99.90
6054;DHT22;3055;50.886;14.814;2024-01-11T09:38:35;-3.20;99.90
6054;DHT22;3055;50.886;14.814;2024-01-11T09:41:07;-3.10;99.90
6054;DHT22;3055;50.886;14.814;2024-01-11T09:43:36;-3.00;99.90
6054;DHT22;3055;50.886;14.814;2024-01-11T09:46:05;-2.80;99.90
6054;DHT22;3055;50.886;14.814;2024-01-11T09:48:34;-2.60;99.90
6054;DHT22;3055;50.886;14.814;2024-01-11T09:51:02;-2.50;99.90
6054;DHT22;3055;50.886;14.814;2024-01-11T09:53:32;-2.40;99.90
6054;DHT22;3055;50.886;14.814;2024-01-11T09:56:02;-2.30;99.90
6054;DHT22;3055;50.886;14.814;2024-01-11T09:58:33;-2.30;99.90
6054;DHT22;3055;50.886;14.814;2024-01-11T10:01:03;-2.20;99.90
6054;DHT22;3055;50.886;14.814;2024-01-11T10:03:33;-2.10;99.90
6054;DHT22;3055;50.886;14.814;2024-01-11T10:06:01;-2.10;99.90
6054;DHT22;3055;50.886;14.814;2024-01-11T10:08:31;-2.00;99.90
6054;DHT22;3055;50.886;14.814;2024-01-11T10:10:59;-1.90;99.90
6054;DHT22;3055;50.886;14.814;2024-01-11T10:13:28;-1.80;99.90
6054;DHT22;3055;50.886;14.814;2024-01-11T10:16:05;-1.80;99.90
6054;DHT22;3055;50.886;14.814;2024-01-11T10:18:34;-1.80;99.90
6054;DHT22;3055;50.886;14.814;2024-01-11T10:21:01;-1.70;99.90
6054;DHT22;3055;50.886;14.814;2024-01-11T10:23:30;-1.70;99.90
6054;DHT22;3055;50.886;14.814;2024-01-11T10:26:00;-1.60;99.90
6054;DHT22;3055;50.886;14.814;2024-01-11T10:28:28;-1.60;99.90
6054;DHT22;3055;50.886;14.814;2024-01-11T10:30:55;-1.80;99.90
6054;DHT22;3055;50.886;14.814;2024-01-11T10:33:23;-1.80;99.90
6054;DHT22;3055;50.886;14.814;2024-01-11T10:35:51;-1.80;99.90
6054;DHT22;3055;50.886;14.814;2024-01-11T10:38:18;-1.80;99.90
6054;DHT22;3055;50.886;14.814;2024-01-11T10:40:48;-1.90;99.90
6054;DHT22;3055;50.886;14.814;2024-01-11T10:43:21;-1.90;99.90
6054;DHT22;3055;50.886;14.814;2024-01-11T10:45:49;-1.90;99.90
6054;DHT22;3055;50.886;14.814;2024-01-11T10:48:21;-1.90;99.90
6054;DHT22;3055;50.886;14.814;2024-01-11T10:50:55;-1.80;99.90
6054;DHT22;3055;50.886;14.814;2024-01-11T10:53:35;-1.70;99.90
6054;DHT22;3055;50.886;14.814;2024-01-11T10:56:05;-1.70;99.90
6054;DHT22;3055;50.886;14.814;2024-01-11T10:58:34;-1.50;99.90
6054;DHT22;3055;50.886;14.814;2024-01-11T11:01:02;-1.40;99.90
6054;DHT22;3055;50.886;14.814;2024-01-11T11:03:30;-1.30;99.90
6054;DHT22;3055;50.886;14.814;2024-01-11T11:05:58;-1.20;99.90
6054;DHT22;3055;50.886;14.814;2024-01-11T11:08:27;-1.10;99.90
6054;DHT22;3055;50.886;14.814;2024-01-11T11:10:58;-1.00;99.90
6054;DHT22;3055;50.886;14.814;2024-01-11T11:13:27;-1.00;99.90
6054;DHT22;3055;50.886;14.814;2024-01-11T11:15:55;-0.90;99.90
6054;DHT22;3055;50.886;14.814;2024-01-11T11:18:23;-0.80;99.90
6054;DHT22;3055;50.886;14.814;2024-01-11T11:20:51;-0.70;99.90
6054;DHT22;3055;50.886;14.814;2024-01-11T11:23:19;-0.60;99.90
6054;DHT22;3055;50.886;14.814;2024-01-11T11:25:48;-0.40;99.90
6054;DHT22;3055;50.886;14.814;2024-01-11T11:28:17;-0.30;99.90
6054;DHT22;3055;50.886;14.814;2024-01-11T11:30:49;-0.10;99.90
6054;DHT22;3055;50.886;14.814;2024-01-11T11:33:18;0.00;99.90
6054;DHT22;3055;50.886;14.814;2024-01-11T11:35:46;0.00;99.90
6054;DHT22;3055;50.886;14.814;2024-01-11T11:38:21;0.10;99.90
6054;DHT22;3055;50.886;14.814;2024-01-11T11:40:50;0.40;99.90
6054;DHT22;3055;50.886;14.814;2024-01-11T11:43:19;0.50;99.90
6054;DHT22;3055;50.886;14.814;2024-01-11T11:45:49;0.40;43.00
6054;DHT22;3055;50.886;14.814;2024-01-11T11:48:50;0.40;84.20
6054;DHT22;3055;50.886;14.814;2024-01-11T11:51:22;0.40;1.00
6054;DHT22;3055;50.886;14.814;2024-01-11T11:53:51;0.40;1.00
6054;DHT22;3055;50.886;14.814;2024-01-11T11:56:19;0.50;1.00
6054;DHT22;3055;50.886;14.814;2024-01-11T11:58:48;0.70;99.90
6054;DHT22;3055;50.886;14.814;2024-01-11T12:01:17;0.90;1.00
6054;DHT22;3055;50.886;14.814;2024-01-11T12:03:45;1.10;1.00
6054;DHT22;3055;50.886;14.814;2024-01-11T12:06:17;1.20;1.00
6054;DHT22;3055;50.886;14.814;2024-01-11T12:08:44;1.20;99.90
6054;DHT22;3055;50.886;14.814;2024-01-11T12:11:18;1.10;1.00
6054;DHT22;3055;50.886;14.814;2024-01-11T12:13:46;0.90;1.00
6054;DHT22;3055;50.886;14.814;2024-01-11T12:16:13;0.90;1.00
6054;DHT22;3055;50.886;14.814;2024-01-11T12:18:42;0.90;1.00
6054;DHT22;3055;50.886;14.814;2024-01-11T12:21:10;0.90;1.00
6054;DHT22;3055;50.886;14.814;2024-01-11T12:23:39;0.90;1.00
6054;DHT22;3055;50.886;14.814;2024-01-11T12:26:07;1.10;99.90
6054;DHT22;3055;50.886;14.814;2024-01-11T12:28:39;1.30;99.90
6054;DHT22;3055;50.886;14.814;2024-01-11T12:31:07;1.40;99.90
6054;DHT22;3055;50.886;14.814;2024-01-11T12:33:35;1.40;99.90
6054;DHT22;3055;50.886;14.814;2024-01-11T12:36:06;1.50;99.90
6054;DHT22;3055;50.886;14.814;2024-01-11T12:38:35;1.50;99.90
6054;DHT22;3055;50.886;14.814;2024-01-11T12:41:04;1.50;99.90
6054;DHT22;3055;50.886;14.814;2024-01-11T12:43:32;1.50;99.90
6054;DHT22;3055;50.886;14.814;2024-01-11T12:46:00;1.60;99.90
6054;DHT22;3055;50.886;14.814;2024-01-11T12:48:28;1.70;99.90
6054;DHT22;3055;50.886;14.814;2024-01-11T12:50:56;1.70;99.90
6054;DHT22;3055;50.886;14.814;2024-01-11T12:53:25;1.70;99.90
6054;DHT22;3055;50.886;14.814;2024-01-11T12:56:03;1.80;99.90
6054;DHT22;3055;50.886;14.814;2024-01-11T12:58:34;1.80;99.90
6054;DHT22;3055;50.886;14.814;2024-01-11T13:01:02;1.80;99.90
6054;DHT22;3055;50.886;14.814;2024-01-11T13:03:30;1.80;99.90
6054;DHT22;3055;50.886;14.814;2024-01-11T13:05:57;1.70;99.90
6054;DHT22;3055;50.886;14.814;2024-01-11T13:08:26;1.70;99.90
6054;DHT22;3055;50.886;14.814;2024-01-11T13:10:54;1.80;99.90
6054;DHT22;3055;50.886;14.814;2024-01-11T13:13:21;1.80;99.90
6054;DHT22;3055;50.886;14.814;2024-01-11T13:15:48;1.70;99.90
6054;DHT22;3055;50.886;14.814;2024-01-11T13:18:16;1.60;99.90
6054;DHT22;3055;50.886;14.814;2024-01-11T13:20:43;1.60;99.90
6054;DHT22;3055;50.886;14.814;2024-01-11T13:23:14;1.40;99.90
6054;DHT22;3055;50.886;14.814;2024-01-11T13:25:43;1.30;99.90
6054;DHT22;3055;50.886;14.814;2024-01-11T13:28:10;1.30;99.90
6054;DHT22;3055;50.886;14.814;2024-01-11T13:30:38;1.10;99.90
6054;DHT22;3055;50.886;14.814;2024-01-11T13:33:06;1.00;99.90
6054;DHT22;3055;50.886;14.814;2024-01-11T13:35:34;1.00;99.90
6054;DHT22;3055;50.886;14.814;2024-01-11T13:38:01;0.80;99.90
6054;DHT22;3055;50.886;14.814;2024-01-11T13:40:28;0.70;99.90
6054;DHT22;3055;50.886;14.814;2024-01-11T13:42:58;0.50;99.90
6054;DHT22;3055;50.886;14.814;2024-01-11T13:45:25;0.40;99.90
6054;DHT22;3055;50.886;14.814;2024-01-11T13:47:54;0.30;99.90
6054;DHT22;3055;50.886;14.814;2024-01-11T13:50:21;0.30;99.90
6054;DHT22;3055;50.886;14.814;2024-01-11T13:52:50;0.30;99.90
6054;DHT22;3055;50.886;14.814;2024-01-11T13:55:17;0.30;99.90
6054;DHT22;3055;50.886;14.814;2024-01-11T13:57:47;0.40;99.90
6054;DHT22;3055;50.886;14.814;2024-01-11T14:00:16;0.50;99.90
6054;DHT22;3055;50.886;14.814;2024-01-11T14:02:44;0.70;99.90
6054;DHT22;3055;50.886;14.814;2024-01-11T14:05:11;0.80;99.40
6054;DHT22;3055;50.886;14.814;2024-01-11T14:07:41;0.90;97.00
6054;DHT22;3055;50.886;14.814;2024-01-11T14:10:09;1.00;85.20
6054;DHT22;3055;50.886;14.814;2024-01-11T14:12:37;1.00;71.40
6054;DHT22;3055;50.886;14.814;2024-01-11T14:15:06;1.00;61.40
6054;DHT22;3055;50.886;14.814;2024-01-11T14:17:35;1.00;62.10
6054;DHT22;3055;50.886;14.814;2024-01-11T14:20:02;0.90;54.20
6054;DHT22;3055;50.886;14.814;2024-01-11T14:22:32;0.90;52.60
6054;DHT22;3055;50.886;14.814;2024-01-11T14:24:59;0.80;46.30
6054;DHT22;3055;50.886;14.814;2024-01-11T14:27:26;0.70;46.10
6054;DHT22;3055;50.886;14.814;2024-01-11T14:29:53;0.70;42.80
6054;DHT22;3055;50.886;14.814;2024-01-11T14:32:21;0.50;41.10
6054;DHT22;3055;50.886;14.814;2024-01-11T14:34:49;0.40;34.30
6054;DHT22;3055;50.886;14.814;2024-01-11T14:37:16;0.30;30.70
6054;DHT22;3055;50.886;14.814;2024-01-11T14:39:44;0.10;32.10
6054;DHT22;3055;50.886;14.814;2024-01-11T14:42:11;-0.10;28.80
6054;DHT22;3055;50.886;14.814;2024-01-11T14:44:38;-0.20;30.90
6054;DHT22;3055;50.886;14.814;2024-01-11T14:47:05;-0.30;31.80
6054;DHT22;3055;50.886;14.814;2024-01-11T14:49:33;-0.50;32.10
6054;DHT22;3055;50.886;14.814;2024-01-11T14:52:01;-0.60;33.30
6054;DHT22;3055;50.886;14.814;2024-01-11T14:54:29;-0.70;30.30
6054;DHT22;3055;50.886;14.814;2024-01-11T14:56:56;-0.70;28.70
6054;DHT22;3055;50.886;14.814;2024-01-11T14:59:24;-0.70;27.70
6054;DHT22;3055;50.886;14.814;2024-01-11T15:01:52;-0.80;24.80
6054;DHT22;3055;50.886;14.814;2024-01-11T15:04:19;-1.00;25.40
6054;DHT22;3055;50.886;14.814;2024-01-11T15:06:47;-1.10;27.00
6054;DHT22;3055;50.886;14.814;2024-01-11T15:09:16;-1.20;29.20
6054;DHT22;3055;50.886;14.814;2024-01-11T15:11:44;-1.10;32.30
6054;DHT22;3055;50.886;14.814;2024-01-11T15:14:11;-1.20;32.00
6054;DHT22;3055;50.886;14.814;2024-01-11T15:16:39;-1.30;32.10
6054;DHT22;3055;50.886;14.814;2024-01-11T15:19:10;-1.40;38.00
6054;DHT22;3055;50.886;14.814;2024-01-11T15:21:38;-1.40;36.60
6054;DHT22;3055;50.886;14.814;2024-01-11T15:24:07;-1.40;37.40
6054;DHT22;3055;50.886;14.814;2024-01-11T15:26:36;-1.50;36.90
6054;DHT22;3055;50.886;14.814;2024-01-11T15:29:03;-1.50;31.80
6054;DHT22;3055;50.886;14.814;2024-01-11T15:31:31;-1.60;32.10
6054;DHT22;3055;50.886;14.814;2024-01-11T15:34:01;-1.60;31.40
6054;DHT22;3055;50.886;14.814;2024-01-11T15:36:30;-1.80;30.90
6054;DHT22;3055;50.886;14.814;2024-01-11T15:38:58;-1.90;33.70
6054;DHT22;3055;50.886;14.814;2024-01-11T15:41:25;-1.90;34.40
6054;DHT22;3055;50.886;14.814;2024-01-11T15:43:53;-1.90;38.60
6054;DHT22;3055;50.886;14.814;2024-01-11T15:46:22;-2.00;36.50
6054;DHT22;3055;50.886;14.814;2024-01-11T15:48:49;-2.20;47.70
6054;DHT22;3055;50.886;14.814;2024-01-11T15:51:17;-2.30;59.20
6054;DHT22;3055;50.886;14.814;2024-01-11T15:53:44;-2.40;88.00
6054;DHT22;3055;50.886;14.814;2024-01-11T15:56:13;-2.40;80.60